createdAt,value
2018-09-29T00:00:41.526Z,7.80
2018-09-29T00:03:13.878Z,7.80
2018-09-29T00:05:51.065Z,7.80
2018-09-29T00:08:25.405Z,7.80
2018-09-29T00:11:04.184Z,7.80
2018-09-29T00:13:40.128Z,7.80
2018-09-29T00:16:14.967Z,7.80
2018-09-29T00:18:48.898Z,7.80
2018-09-29T00:21:26.566Z,7.70
2018-09-29T00:24:08.053Z,7.70
2018-09-29T00:26:42.781Z,7.60
2018-09-29T00:32:00.510Z,7.50
2018-09-29T00:34:37.466Z,7.50
2018-09-29T00:40:00.485Z,7.40
2018-09-29T00:42:40.527Z,7.40
2018-09-29T00:45:19.524Z,7.40
2018-09-29T00:47:52.919Z,7.40
2018-09-29T00:50:25.602Z,7.30
2018-09-29T00:53:02.323Z,7.30
2018-09-29T00:55:42.251Z,7.30
2018-09-29T00:58:19.023Z,7.30
2018-09-29T01:00:53.259Z,7.30
2018-09-29T01:03:26.940Z,7.30
2018-09-29T01:06:23.375Z,7.30
2018-09-29T01:09:04.229Z,7.30
2018-09-29T01:11:39.169Z,7.20
2018-09-29T01:14:11.962Z,7.30
2018-09-29T01:16:47.605Z,7.40
2018-09-29T01:19:23.457Z,7.40
2018-09-29T01:21:55.412Z,7.40
2018-09-29T01:24:31.012Z,7.40
2018-09-29T01:27:07.020Z,7.50
2018-09-29T01:29:41.340Z,7.50
2018-09-29T01:32:16.783Z,7.50
2018-09-29T01:34:48.237Z,7.50
2018-09-29T01:37:20.508Z,7.50
2018-09-29T01:39:51.240Z,7.50
2018-09-29T01:42:26.890Z,7.50
2018-09-29T01:45:00.615Z,7.50
2018-09-29T01:47:33.641Z,7.50
2018-09-29T01:50:04.156Z,7.60
2018-09-29T01:52:40.675Z,7.60
2018-09-29T01:55:13.654Z,7.60
2018-09-29T01:57:47.680Z,7.60
2018-09-29T02:00:22.912Z,7.50
2018-09-29T02:02:55.989Z,7.50
2018-09-29T02:05:27.667Z,7.40
2018-09-29T02:08:03.528Z,7.40
2018-09-29T02:10:35.485Z,7.50
2018-09-29T02:13:07.625Z,7.50
2018-09-29T02:15:39.625Z,7.60
2018-09-29T02:18:12.010Z,7.60
2018-09-29T02:20:42.879Z,7.60
2018-09-29T02:23:17.877Z,7.60
2018-09-29T02:25:51.849Z,7.70
2018-09-29T02:28:34.495Z,7.70
2018-09-29T02:31:11.236Z,7.70
2018-09-29T02:33:45.453Z,7.80
2018-09-29T02:36:18.329Z,7.80
2018-09-29T02:38:52.944Z,7.80
2018-09-29T02:41:27.681Z,7.90
2018-09-29T02:44:02.550Z,7.80
2018-09-29T02:46:40.812Z,7.90
2018-09-29T02:49:15.698Z,7.90
2018-09-29T02:51:50.494Z,7.90
2018-09-29T02:54:27.851Z,7.90
2018-09-29T02:56:58.237Z,7.90
2018-09-29T02:59:32.861Z,7.80
2018-09-29T03:02:03.395Z,7.80
2018-09-29T03:04:36.476Z,7.90
2018-09-29T03:07:09.876Z,7.90
2018-09-29T03:09:43.194Z,7.90
2018-09-29T03:12:17.006Z,8.00
2018-09-29T03:17:39.391Z,8.00
2018-09-29T03:20:16.657Z,8.00
2018-09-29T03:22:48.357Z,8.10
2018-09-29T03:25:20.349Z,8.10
2018-09-29T03:27:54.888Z,8.10
2018-09-29T03:30:27.288Z,8.10
2018-09-29T03:32:59.536Z,8.10
2018-09-29T03:35:31.255Z,8.20
2018-09-29T03:38:04.585Z,8.20
2018-09-29T03:40:45.836Z,8.10
2018-09-29T03:43:24.546Z,8.10
2018-09-29T03:48:41.817Z,8.10
2018-09-29T03:51:20.840Z,8.20
2018-09-29T03:53:56.874Z,8.10
2018-09-29T03:56:31.828Z,8.10
2018-09-29T03:59:06.667Z,8.10
2018-09-29T04:01:37.603Z,8.20
2018-09-29T04:04:14.380Z,8.20
2018-09-29T04:06:46.187Z,8.20
2018-09-29T04:09:22.813Z,8.20
2018-09-29T04:11:56.150Z,8.20
2018-09-29T04:14:29.903Z,8.20
2018-09-29T04:17:05.246Z,8.20
2018-09-29T04:19:36.707Z,8.20
2018-09-29T04:24:56.693Z,8.20
2018-09-29T04:27:27.834Z,8.20
2018-09-29T04:29:59.795Z,8.20
2018-09-29T04:32:36.676Z,8.20
2018-09-29T04:35:10.791Z,8.10
2018-09-29T04:37:43.472Z,8.10
2018-09-29T04:40:16.555Z,8.20
2018-09-29T04:42:49.095Z,8.20
2018-09-29T04:45:20.403Z,8.20
2018-09-29T04:47:50.906Z,8.20
2018-09-29T04:50:21.257Z,8.20
2018-09-29T04:52:55.236Z,8.30
2018-09-29T04:55:30.305Z,8.30
2018-09-29T04:58:06.077Z,8.30
2018-09-29T05:00:39.546Z,8.20
2018-09-29T05:03:10.863Z,8.20
2018-09-29T05:05:48.458Z,8.20
2018-09-29T05:08:26.615Z,8.20
2018-09-29T05:11:00.574Z,8.20
2018-09-29T05:13:35.143Z,8.10
2018-09-29T05:16:07.476Z,8.10
2018-09-29T05:18:39.369Z,8.10
2018-09-29T05:21:13.233Z,8.10
2018-09-29T05:23:45.298Z,8.10
2018-09-29T05:26:20.584Z,8.10
2018-09-29T05:28:53.566Z,8.10
2018-09-29T05:31:26.549Z,8.10
2018-09-29T05:34:02.870Z,8.00
2018-09-29T05:36:38.983Z,8.00
2018-09-29T05:39:16.318Z,8.00
2018-09-29T05:41:56.522Z,7.90
2018-09-29T05:44:30.380Z,7.90
2018-09-29T05:46:59.960Z,7.80
2018-09-29T05:49:29.088Z,7.80
2018-09-29T05:51:58.335Z,7.80
2018-09-29T05:54:27.625Z,7.80
2018-09-29T05:56:56.901Z,7.80
2018-09-29T05:59:26.081Z,7.80
2018-09-29T06:01:55.400Z,7.80
2018-09-29T06:04:24.814Z,7.70
2018-09-29T06:06:53.934Z,7.70
2018-09-29T06:09:23.278Z,7.70
2018-09-29T06:11:52.600Z,7.70
2018-09-29T06:14:21.881Z,7.70
2018-09-29T06:16:51.028Z,7.70
2018-09-29T06:19:20.252Z,7.70
2018-09-29T06:21:49.435Z,7.70
2018-09-29T06:24:18.760Z,7.70
2018-09-29T06:26:47.941Z,7.70
2018-09-29T06:29:17.204Z,7.70
2018-09-29T06:31:46.366Z,7.70
2018-09-29T06:34:15.691Z,7.80
2018-09-29T06:36:45.235Z,7.90
2018-09-29T06:39:14.481Z,7.90
2018-09-29T06:41:45.043Z,8.00
2018-09-29T06:44:14.395Z,8.10
2018-09-29T06:46:43.723Z,8.20
2018-09-29T06:49:13.049Z,8.30
2018-09-29T06:51:42.238Z,8.30
2018-09-29T06:54:11.393Z,8.40
2018-09-29T06:56:40.511Z,8.40
2018-09-29T06:59:10.120Z,8.50
2018-09-29T07:01:39.233Z,8.60
2018-09-29T07:04:08.453Z,8.80
2018-09-29T07:06:37.684Z,9.10
2018-09-29T07:09:09.193Z,9.20
2018-09-29T07:11:38.264Z,9.40
2018-09-29T07:14:07.523Z,9.90
2018-09-29T07:16:36.863Z,10.30
2018-09-29T07:19:06.216Z,10.30
2018-09-29T07:21:35.426Z,10.60
2018-09-29T07:24:04.479Z,10.70
2018-09-29T07:26:33.555Z,11.00
2018-09-29T07:29:02.663Z,11.30
2018-09-29T07:31:31.899Z,11.40
2018-09-29T07:34:01.044Z,11.30
2018-09-29T07:36:30.206Z,11.20
2018-09-29T07:38:59.459Z,11.30
2018-09-29T07:41:28.641Z,11.80
2018-09-29T07:43:57.888Z,11.80
2018-09-29T07:46:27.189Z,11.90
2018-09-29T07:48:56.041Z,12.00
2018-09-29T07:51:25.313Z,12.20
2018-09-29T07:53:54.204Z,12.30
2018-09-29T07:56:24.101Z,12.30
2018-09-29T07:58:53.034Z,12.00
2018-09-29T08:01:22.869Z,12.30
2018-09-29T08:03:52.433Z,12.30
2018-09-29T08:06:22.656Z,12.60
2018-09-29T08:08:51.954Z,12.80
2018-09-29T08:11:21.064Z,13.40
2018-09-29T08:13:50.131Z,13.70
2018-09-29T08:16:19.329Z,13.80
2018-09-29T08:18:48.450Z,14.50
2018-09-29T08:21:17.689Z,14.80
2018-09-29T08:23:46.755Z,15.00
2018-09-29T08:26:15.737Z,15.50
2018-09-29T08:28:45.961Z,15.40
2018-09-29T08:31:14.959Z,15.50
2018-09-29T08:33:44.045Z,15.80
2018-09-29T08:36:32.260Z,15.60
2018-09-29T08:39:01.522Z,16.00
2018-09-29T08:41:30.522Z,16.40
2018-09-29T08:43:59.509Z,16.30
2018-09-29T08:46:28.540Z,16.10
2018-09-29T08:48:57.580Z,16.70
2018-09-29T08:51:26.664Z,16.80
2018-09-29T08:53:55.765Z,16.90
2018-09-29T08:56:24.769Z,16.70
2018-09-29T08:58:53.954Z,16.50
2018-09-29T09:01:24.220Z,16.20
2018-09-29T09:03:53.219Z,15.60
2018-09-29T09:06:22.146Z,16.20
2018-09-29T09:08:51.240Z,16.80
2018-09-29T09:11:20.159Z,17.00
2018-09-29T09:13:49.317Z,16.60
2018-09-29T09:16:18.485Z,16.30
2018-09-29T09:18:47.839Z,16.80
2018-09-29T09:21:16.880Z,17.00
2018-09-29T09:23:45.951Z,17.10
2018-09-29T09:26:15.044Z,16.80
2018-09-29T09:28:44.110Z,17.30
2018-09-29T09:31:13.249Z,17.60
2018-09-29T09:33:42.537Z,18.00
2018-09-29T09:36:16.663Z,17.70
2018-09-29T09:38:45.641Z,17.90
2018-09-29T09:41:15.088Z,17.90
2018-09-29T09:43:44.057Z,18.30
2018-09-29T09:46:13.794Z,18.00
2018-09-29T09:48:43.118Z,18.40
2018-09-29T09:51:11.954Z,18.40
2018-09-29T09:53:43.381Z,18.00
2018-09-29T09:56:12.557Z,18.30
2018-09-29T09:58:41.494Z,18.60
2018-09-29T10:01:15.487Z,18.90
2018-09-29T10:03:44.645Z,18.70
2018-09-29T10:06:14.012Z,18.80
2018-09-29T10:08:43.344Z,18.90
2018-09-29T10:11:12.802Z,18.60
2018-09-29T10:13:41.996Z,18.90
2018-09-29T10:16:11.581Z,18.80
2018-09-29T10:18:41.241Z,18.40
2018-09-29T10:21:10.741Z,18.50
2018-09-29T10:23:39.965Z,18.60
2018-09-29T10:26:09.160Z,18.80
2018-09-29T10:28:38.355Z,19.40
2018-09-29T10:31:07.708Z,19.70
2018-09-29T10:33:37.202Z,19.20
2018-09-29T10:36:06.451Z,19.60
2018-09-29T10:38:35.631Z,19.70
2018-09-29T10:41:05.109Z,19.80
2018-09-29T10:43:34.207Z,19.80
2018-09-29T10:46:03.492Z,19.90
2018-09-29T10:48:32.556Z,19.90
2018-09-29T10:51:01.881Z,19.60
2018-09-29T10:53:31.445Z,20.20
2018-09-29T10:56:00.907Z,20.00
2018-09-29T10:58:30.126Z,20.50
2018-09-29T11:00:59.784Z,20.50
2018-09-29T11:03:28.972Z,20.60
2018-09-29T11:05:58.274Z,20.90
2018-09-29T11:08:27.583Z,21.00
2018-09-29T11:10:56.999Z,21.30
2018-09-29T11:13:26.156Z,21.50
2018-09-29T11:15:55.453Z,21.20
2018-09-29T11:18:24.469Z,20.80
2018-09-29T11:20:53.629Z,21.30
2018-09-29T11:23:23.163Z,21.80
2018-09-29T11:25:52.382Z,21.90
2018-09-29T11:28:22.236Z,21.80
2018-09-29T11:30:51.465Z,21.80
2018-09-29T11:33:20.650Z,21.60
2018-09-29T11:35:49.895Z,21.60
2018-09-29T11:38:19.180Z,21.50
2018-09-29T11:40:48.051Z,21.40
2018-09-29T11:43:17.227Z,21.30
2018-09-29T11:45:46.459Z,21.10
2018-09-29T11:48:15.297Z,21.00
2018-09-29T11:50:44.681Z,20.90
2018-09-29T11:53:13.759Z,20.70
2018-09-29T11:55:42.823Z,20.60
2018-09-29T11:58:12.252Z,20.40
2018-09-29T12:00:41.205Z,20.40
2018-09-29T12:03:10.226Z,20.30
2018-09-29T12:05:39.171Z,20.30
2018-09-29T12:08:08.443Z,20.20
2018-09-29T12:10:37.529Z,20.20
2018-09-29T12:13:06.579Z,19.90
2018-09-29T12:15:35.710Z,19.80
2018-09-29T12:18:04.820Z,19.90
2018-09-29T12:20:34.113Z,19.80
2018-09-29T12:23:03.327Z,20.10
2018-09-29T12:25:33.760Z,20.30
2018-09-29T12:28:03.233Z,20.00
2018-09-29T12:30:32.808Z,20.20
2018-09-29T12:33:01.982Z,20.20
2018-09-29T12:35:31.052Z,20.20
2018-09-29T12:38:00.122Z,20.10
2018-09-29T12:40:29.430Z,20.10
2018-09-29T12:42:58.565Z,20.00
2018-09-29T12:45:27.929Z,20.00
2018-09-29T12:47:57.241Z,19.90
2018-09-29T12:50:26.410Z,19.90
2018-09-29T12:52:55.632Z,19.90
2018-09-29T12:55:24.719Z,19.80
2018-09-29T12:57:54.158Z,19.80
2018-09-29T13:00:23.238Z,19.80
2018-09-29T13:02:52.415Z,19.80
2018-09-29T13:05:21.583Z,19.80
2018-09-29T13:07:50.639Z,19.90
2018-09-29T13:10:19.719Z,19.80
2018-09-29T13:12:49.024Z,19.50
2018-09-29T13:15:18.223Z,19.60
2018-09-29T13:17:47.374Z,19.40
2018-09-29T13:20:16.675Z,19.60
2018-09-29T13:22:45.915Z,19.70
2018-09-29T13:25:15.266Z,19.70
2018-09-29T13:27:44.412Z,19.80
2018-09-29T13:30:13.652Z,19.90
2018-09-29T13:32:42.948Z,19.90
2018-09-29T13:35:12.288Z,19.90
2018-09-29T13:37:41.994Z,19.80
2018-09-29T13:40:11.268Z,19.50
2018-09-29T13:42:40.528Z,19.70
2018-09-29T13:45:10.041Z,19.80
2018-09-29T13:47:39.086Z,19.80
2018-09-29T13:50:08.147Z,20.00
2018-09-29T13:52:37.094Z,20.40
2018-09-29T13:55:06.260Z,20.70
2018-09-29T13:57:35.483Z,20.90
2018-09-29T14:00:04.983Z,21.30
2018-09-29T14:02:34.083Z,21.70
2018-09-29T14:05:03.271Z,21.80
2018-09-29T14:07:32.609Z,21.70
2018-09-29T14:10:01.694Z,21.70
2018-09-29T14:12:31.121Z,21.80
2018-09-29T14:15:03.998Z,22.00
2018-09-29T14:17:33.037Z,22.00
2018-09-29T14:20:02.511Z,21.90
2018-09-29T14:22:31.681Z,21.80
2018-09-29T14:25:01.026Z,21.60
2018-09-29T14:27:30.299Z,21.50
2018-09-29T14:29:59.841Z,21.70
2018-09-29T14:32:29.100Z,22.00
2018-09-29T14:34:58.284Z,22.20
2018-09-29T14:37:31.848Z,22.40
2018-09-29T14:40:07.477Z,23.10
2018-09-29T14:42:42.874Z,23.70
2018-09-29T14:45:23.016Z,23.70
2018-09-29T14:48:00.687Z,24.30
2018-09-29T14:50:32.239Z,23.90
2018-09-29T14:53:10.479Z,23.30
2018-09-29T14:55:43.977Z,24.20
2018-09-29T14:58:18.174Z,24.20
2018-09-29T15:00:55.782Z,24.10
2018-09-29T15:03:28.160Z,24.40
2018-09-29T15:06:12.834Z,24.30
2018-09-29T15:08:45.166Z,24.70
2018-09-29T15:11:18.487Z,24.10
2018-09-29T15:13:52.283Z,24.60
2018-09-29T15:16:33.382Z,24.70
2018-09-29T15:19:31.645Z,24.60
2018-09-29T15:22:05.664Z,24.30
2018-09-29T15:24:45.408Z,23.90
2018-09-29T15:30:09.065Z,23.60
2018-09-29T15:32:43.396Z,23.40
2018-09-29T15:35:14.595Z,23.30
2018-09-29T15:37:53.118Z,23.20
2018-09-29T15:40:26.066Z,23.10
2018-09-29T15:42:59.647Z,23.10
2018-09-29T15:45:36.364Z,23.10
2018-09-29T15:48:16.897Z,23.10
2018-09-29T15:51:08.617Z,23.20
2018-09-29T15:54:01.135Z,23.40
2018-09-29T15:56:34.915Z,23.70
2018-09-29T15:59:08.690Z,23.70
2018-09-29T16:02:14.251Z,23.80
2018-09-29T16:04:51.172Z,23.80
2018-09-29T16:07:22.438Z,23.50
2018-09-29T16:09:54.588Z,23.80
2018-09-29T16:12:27.833Z,23.70
2018-09-29T16:14:58.666Z,23.40
2018-09-29T16:17:30.646Z,23.20
2018-09-29T16:20:08.728Z,22.90
2018-09-29T16:22:42.216Z,22.70
2018-09-29T16:25:14.710Z,22.70
2018-09-29T16:28:13.642Z,22.50
2018-09-29T16:30:58.838Z,22.20
2018-09-29T16:33:31.663Z,22.00
2018-09-29T16:36:07.556Z,21.70
2018-09-29T16:38:42.863Z,21.50
2018-09-29T16:41:17.870Z,21.20
2018-09-29T16:43:57.951Z,21.00
2018-09-29T16:46:30.358Z,20.70
2018-09-29T16:49:15.490Z,20.50
2018-09-29T16:51:49.854Z,20.30
2018-09-29T16:54:22.435Z,20.10
2018-09-29T16:56:56.176Z,19.90
2018-09-29T16:59:31.131Z,19.70
2018-09-29T17:02:02.378Z,19.50
2018-09-29T17:04:35.560Z,19.30
2018-09-29T17:07:07.992Z,19.20
2018-09-29T17:09:44.107Z,19.00
2018-09-29T17:12:18.320Z,18.80
2018-09-29T17:14:59.891Z,18.70
2018-09-29T17:17:36.203Z,18.50
2018-09-29T17:20:10.007Z,18.40
2018-09-29T17:22:48.441Z,18.20
2018-09-29T17:25:20.374Z,18.10
2018-09-29T17:27:52.016Z,18.00
2018-09-29T17:30:21.443Z,17.80
2018-09-29T17:32:51.077Z,17.70
2018-09-29T17:35:20.158Z,17.60
2018-09-29T17:37:49.305Z,17.40
2018-09-29T17:40:18.599Z,17.30
2018-09-29T17:42:47.851Z,17.20
2018-09-29T17:45:17.034Z,17.00
2018-09-29T17:47:46.069Z,16.90
2018-09-29T17:50:15.201Z,16.80
2018-09-29T17:52:44.392Z,16.70
2018-09-29T17:55:13.864Z,16.50
2018-09-29T17:57:43.040Z,16.40
2018-09-29T18:00:12.427Z,16.30
2018-09-29T18:02:41.708Z,16.20
2018-09-29T18:05:10.930Z,16.10
2018-09-29T18:07:40.121Z,15.90
2018-09-29T18:10:09.387Z,15.80
2018-09-29T18:12:38.551Z,15.70
2018-09-29T18:15:07.757Z,15.60
2018-09-29T18:17:36.971Z,15.50
2018-09-29T18:20:06.671Z,15.40
2018-09-29T18:22:35.725Z,15.30
2018-09-29T18:25:04.950Z,15.20
2018-09-29T18:27:34.469Z,15.10
2018-09-29T18:30:03.893Z,15.00
2018-09-29T18:32:33.068Z,14.90
2018-09-29T18:35:02.164Z,14.80
2018-09-29T18:37:31.378Z,14.70
2018-09-29T18:40:00.622Z,14.60
2018-09-29T18:42:29.714Z,14.50
2018-09-29T18:44:59.058Z,14.50
2018-09-29T18:47:28.649Z,14.40
2018-09-29T18:49:57.765Z,14.30
2018-09-29T18:52:26.842Z,14.20
2018-09-29T18:54:55.853Z,14.10
2018-09-29T18:57:24.830Z,14.00
2018-09-29T18:59:53.805Z,13.90
2018-09-29T19:02:23.078Z,13.90
2018-09-29T19:04:52.425Z,13.80
2018-09-29T19:07:21.401Z,13.70
2018-09-29T19:09:50.408Z,13.70
2018-09-29T19:12:19.459Z,13.60
2018-09-29T19:14:48.697Z,13.50
2018-09-29T19:17:17.897Z,13.40
2018-09-29T19:19:47.025Z,13.30
2018-09-29T19:22:16.156Z,13.30
2018-09-29T19:24:45.214Z,13.20
2018-09-29T19:27:14.495Z,13.10
2018-09-29T19:29:43.833Z,13.00
2018-09-29T19:32:12.965Z,13.00
2018-09-29T19:34:41.889Z,12.90
2018-09-29T19:37:11.031Z,12.80
2018-09-29T19:39:40.173Z,12.70
2018-09-29T19:42:09.399Z,12.60
2018-09-29T19:44:38.611Z,12.60
2018-09-29T19:47:07.656Z,12.50
2018-09-29T19:49:36.790Z,12.40
2018-09-29T19:52:05.760Z,12.40
2018-09-29T19:54:35.114Z,12.30
2018-09-29T19:57:04.463Z,12.20
2018-09-29T19:59:33.878Z,12.20
2018-09-29T20:02:02.944Z,12.10
2018-09-29T20:04:32.244Z,12.10
2018-09-29T20:07:01.447Z,12.00
2018-09-29T20:09:30.575Z,11.90
2018-09-29T20:11:59.761Z,11.90
2018-09-29T20:14:28.913Z,11.80
2018-09-29T20:16:58.116Z,11.70
2018-09-29T20:19:27.387Z,11.70
2018-09-29T20:21:56.794Z,11.60
2018-09-29T20:24:26.052Z,11.50
2018-09-29T20:26:55.161Z,11.50
2018-09-29T20:29:24.259Z,11.40
2018-09-29T20:31:53.597Z,11.40
2018-09-29T20:34:22.669Z,11.30
2018-09-29T20:36:51.864Z,11.20
2018-09-29T20:39:21.170Z,11.10
2018-09-29T20:41:56.082Z,11.10
2018-09-29T20:44:25.277Z,11.10
2018-09-29T20:46:54.452Z,11.10
2018-09-29T20:49:23.755Z,11.00
2018-09-29T20:51:53.357Z,11.00
2018-09-29T20:54:22.548Z,11.00
2018-09-29T20:56:51.864Z,11.00
2018-09-29T20:59:21.099Z,10.90
2018-09-29T21:01:58.603Z,10.80
2018-09-29T21:04:27.692Z,10.80
2018-09-29T21:06:56.761Z,10.70
2018-09-29T21:09:25.831Z,10.70
2018-09-29T21:11:56.119Z,10.60
2018-09-29T21:14:25.418Z,10.50
2018-09-29T21:16:54.425Z,10.40
2018-09-29T21:19:23.504Z,10.50
2018-09-29T21:21:52.612Z,10.50
2018-09-29T21:24:21.774Z,10.40
2018-09-29T21:26:51.198Z,10.40
2018-09-29T21:29:20.566Z,10.30
2018-09-29T21:31:49.788Z,10.30
2018-09-29T21:34:18.998Z,10.20
2018-09-29T21:36:48.290Z,10.10
2018-09-29T21:39:17.508Z,10.10
2018-09-29T21:41:46.781Z,10.00
2018-09-29T21:44:16.383Z,10.00
2018-09-29T21:46:45.575Z,9.90
2018-09-29T21:49:14.644Z,9.90
2018-09-29T21:51:43.933Z,9.80
2018-09-29T21:54:13.611Z,9.80
2018-09-29T21:56:42.645Z,9.80
2018-09-29T21:59:12.012Z,9.70
2018-09-29T22:01:41.234Z,9.70
2018-09-29T22:04:10.562Z,9.60
2018-09-29T22:06:39.969Z,9.60
2018-09-29T22:09:09.534Z,9.60
2018-09-29T22:11:38.691Z,9.50
2018-09-29T22:14:07.876Z,9.50
2018-09-29T22:16:37.153Z,9.50
2018-09-29T22:19:06.646Z,9.50
2018-09-29T22:21:35.842Z,9.40
2018-09-29T22:24:05.049Z,9.40
2018-09-29T22:26:34.302Z,9.30
2018-09-29T22:29:03.416Z,9.30
2018-09-29T22:31:32.646Z,9.30
2018-09-29T22:34:01.900Z,9.30
2018-09-29T22:36:31.205Z,9.20
2018-09-29T22:39:00.519Z,9.20
2018-09-29T22:41:29.668Z,9.20
2018-09-29T22:43:58.922Z,9.10
2018-09-29T22:46:28.234Z,9.00
2018-09-29T22:48:57.437Z,8.90
2018-09-29T22:51:26.533Z,8.90
2018-09-29T22:53:55.698Z,8.90
2018-09-29T22:56:24.995Z,8.80
2018-09-29T22:58:54.286Z,8.80
2018-09-29T23:01:23.440Z,8.80
2018-09-29T23:03:52.393Z,8.70
2018-09-29T23:06:21.547Z,8.70
2018-09-29T23:08:51.028Z,8.70
2018-09-29T23:11:20.196Z,8.70
2018-09-29T23:13:49.299Z,8.60
2018-09-29T23:16:19.561Z,8.50
2018-09-29T23:18:48.773Z,8.50
2018-09-29T23:21:18.105Z,8.50
2018-09-29T23:23:47.501Z,8.40
2018-09-29T23:26:16.712Z,8.40
2018-09-29T23:28:45.908Z,8.30
2018-09-29T23:31:15.040Z,8.30
2018-09-29T23:33:44.318Z,8.30
2018-09-29T23:36:13.604Z,8.30
2018-09-29T23:38:42.617Z,8.20
2018-09-29T23:41:11.689Z,8.20
2018-09-29T23:43:40.822Z,8.20
2018-09-29T23:46:10.003Z,8.20
2018-09-29T23:48:39.228Z,8.20
2018-09-29T23:51:08.500Z,8.10
2018-09-29T23:53:37.944Z,8.10
2018-09-29T23:56:07.214Z,8.00
2018-09-29T23:58:36.261Z,8.00
